createdAt,value
2019-03-09T00:01:45.242Z,17.70
2019-03-09T00:04:15.038Z,17.90
2019-03-09T00:06:44.738Z,18.10
2019-03-09T00:09:14.583Z,17.90
2019-03-09T00:11:44.343Z,18.00
2019-03-09T00:14:14.344Z,18.20
2019-03-09T00:16:44.115Z,18.10
2019-03-09T00:19:13.880Z,18.20
2019-03-09T00:21:43.586Z,18.10
2019-03-09T00:24:30.714Z,18.20
2019-03-09T00:27:29.470Z,18.10
2019-03-09T00:30:03.162Z,18.20
2019-03-09T00:32:33.036Z,18.00
2019-03-09T00:35:02.841Z,18.00
2019-03-09T00:37:32.522Z,18.00
2019-03-09T00:40:02.307Z,18.30
2019-03-09T00:42:32.471Z,18.30
2019-03-09T00:45:02.242Z,18.20
2019-03-09T00:47:32.087Z,18.20
2019-03-09T00:50:01.855Z,18.10
2019-03-09T00:52:32.579Z,18.10
2019-03-09T00:55:02.351Z,18.20
2019-03-09T00:57:32.045Z,18.00
2019-03-09T01:00:01.766Z,17.90
2019-03-09T01:02:32.858Z,17.90
2019-03-09T01:05:02.714Z,17.90
2019-03-09T01:07:32.423Z,17.90
2019-03-09T01:10:02.267Z,18.10
2019-03-09T01:12:33.315Z,18.10
2019-03-09T01:15:03.102Z,17.80
2019-03-09T01:17:33.901Z,17.80
2019-03-09T01:20:03.871Z,17.60
2019-03-09T01:22:33.651Z,17.40
2019-03-09T01:25:03.583Z,17.70
2019-03-09T01:27:33.342Z,17.80
2019-03-09T01:30:03.199Z,17.30
2019-03-09T01:32:34.036Z,17.30
2019-03-09T01:35:04.087Z,17.40
2019-03-09T01:37:33.855Z,17.50
2019-03-09T01:40:04.050Z,17.40
2019-03-09T01:42:33.808Z,17.50
2019-03-09T01:45:03.747Z,17.50
2019-03-09T01:47:33.442Z,17.60
2019-03-09T01:50:03.292Z,17.60
2019-03-09T01:52:32.974Z,17.80
2019-03-09T01:55:02.659Z,17.60
2019-03-09T01:57:32.499Z,17.70
2019-03-09T02:00:02.186Z,17.60
2019-03-09T02:02:33.568Z,17.50
2019-03-09T02:05:03.345Z,17.30
2019-03-09T02:07:33.174Z,17.60
2019-03-09T02:10:03.012Z,17.70
2019-03-09T02:12:33.820Z,17.50
2019-03-09T02:15:04.440Z,17.40
2019-03-09T02:17:34.353Z,17.60
2019-03-09T02:20:04.562Z,17.40
2019-03-09T02:22:34.263Z,17.50
2019-03-09T02:25:05.744Z,17.50
2019-03-09T02:27:35.530Z,17.50
2019-03-09T02:30:05.673Z,17.30
2019-03-09T02:32:35.392Z,17.20
2019-03-09T02:35:06.616Z,17.00
2019-03-09T02:37:36.330Z,17.30
2019-03-09T02:40:25.497Z,17.30
2019-03-09T02:42:55.349Z,17.60
2019-03-09T02:45:25.884Z,17.50
2019-03-09T02:47:55.651Z,17.40
2019-03-09T02:50:25.482Z,17.50
2019-03-09T02:52:55.172Z,17.30
2019-03-09T02:55:26.051Z,17.30
2019-03-09T02:57:55.744Z,17.40
2019-03-09T03:00:27.156Z,17.50
2019-03-09T03:02:59.648Z,17.40
2019-03-09T03:05:29.483Z,17.10
2019-03-09T03:07:59.178Z,17.20
2019-03-09T03:10:28.864Z,17.20
2019-03-09T03:12:58.560Z,17.50
2019-03-09T03:15:31.251Z,17.50
2019-03-09T03:18:01.107Z,17.60
2019-03-09T03:20:30.931Z,17.30
2019-03-09T03:23:00.732Z,17.50
2019-03-09T03:25:31.574Z,17.30
2019-03-09T03:28:01.461Z,17.50
2019-03-09T03:30:31.360Z,17.20
2019-03-09T03:33:01.081Z,17.40
2019-03-09T03:35:30.842Z,17.60
2019-03-09T03:38:00.555Z,17.60
2019-03-09T03:40:30.319Z,17.50
2019-03-09T03:43:00.053Z,17.60
2019-03-09T03:45:29.797Z,17.70
2019-03-09T03:47:59.572Z,17.70
2019-03-09T03:50:29.403Z,17.70
2019-03-09T03:52:59.208Z,17.50
2019-03-09T03:55:30.132Z,17.70
2019-03-09T03:57:59.876Z,17.40
2019-03-09T04:00:30.670Z,17.50
2019-03-09T04:03:00.620Z,17.50
2019-03-09T04:05:30.555Z,17.50
2019-03-09T04:08:00.432Z,17.50
2019-03-09T04:10:30.341Z,17.40
2019-03-09T04:13:00.287Z,17.50
2019-03-09T04:15:30.132Z,17.50
2019-03-09T04:17:59.908Z,17.60
2019-03-09T04:20:29.748Z,17.70
2019-03-09T04:22:59.438Z,17.70
2019-03-09T04:25:29.206Z,17.70
2019-03-09T04:28:00.019Z,17.80
2019-03-09T04:30:29.779Z,17.80
2019-03-09T04:32:59.544Z,17.80
2019-03-09T04:35:29.382Z,17.90
2019-03-09T04:37:59.135Z,17.70
2019-03-09T04:40:29.200Z,17.70
2019-03-09T04:42:58.899Z,17.60
2019-03-09T04:45:28.580Z,17.60
2019-03-09T04:47:58.351Z,17.60
2019-03-09T04:50:28.102Z,17.60
2019-03-09T04:52:57.947Z,17.80
2019-03-09T04:55:27.715Z,17.80
2019-03-09T04:57:57.486Z,17.80
2019-03-09T05:00:27.183Z,17.60
2019-03-09T05:02:56.976Z,17.70
2019-03-09T05:05:26.795Z,17.70
2019-03-09T05:08:03.471Z,17.70
2019-03-09T05:11:00.512Z,17.80
2019-03-09T05:13:36.567Z,17.90
2019-03-09T05:16:06.265Z,17.90
2019-03-09T05:18:36.045Z,18.00
2019-03-09T05:21:05.735Z,17.90
2019-03-09T05:23:35.431Z,17.90
2019-03-09T05:26:05.192Z,18.00
2019-03-09T05:28:34.890Z,18.00
2019-03-09T05:31:04.584Z,18.10
2019-03-09T05:33:34.346Z,18.10
2019-03-09T05:36:04.107Z,18.10
2019-03-09T05:38:33.803Z,17.90
2019-03-09T05:41:03.487Z,17.80
2019-03-09T05:43:33.185Z,17.90
2019-03-09T05:46:02.867Z,18.00
2019-03-09T05:48:33.546Z,18.10
2019-03-09T05:51:03.315Z,18.40
2019-03-09T05:53:33.092Z,18.40
2019-03-09T05:56:02.847Z,18.40
2019-03-09T05:58:32.667Z,18.40
2019-03-09T06:01:02.418Z,18.30
2019-03-09T06:03:32.147Z,18.30
2019-03-09T06:06:10.560Z,18.20
2019-03-09T06:08:40.398Z,18.30
2019-03-09T06:11:10.243Z,18.20
2019-03-09T06:13:40.049Z,18.20
2019-03-09T06:16:09.819Z,18.10
2019-03-09T06:18:39.532Z,18.20
2019-03-09T06:21:09.287Z,18.10
2019-03-09T06:23:39.086Z,18.10
2019-03-09T06:26:08.836Z,18.10
2019-03-09T06:28:39.417Z,18.20
2019-03-09T06:31:09.139Z,18.30
2019-03-09T06:33:39.735Z,18.30
2019-03-09T06:36:38.850Z,18.40
2019-03-09T06:39:23.056Z,18.40
2019-03-09T06:42:08.720Z,18.40
2019-03-09T06:44:38.488Z,18.40
2019-03-09T06:47:09.765Z,18.40
2019-03-09T06:49:39.556Z,18.40
2019-03-09T06:52:09.235Z,18.50
2019-03-09T06:54:39.027Z,18.50
2019-03-09T06:57:13.821Z,18.50
2019-03-09T06:59:41.071Z,18.40
2019-03-09T07:02:10.982Z,18.40
2019-03-09T07:04:40.714Z,18.40
2019-03-09T07:07:12.648Z,18.20
2019-03-09T07:09:42.419Z,18.40
2019-03-09T07:12:13.118Z,18.30
2019-03-09T07:15:27.734Z,18.30
2019-03-09T07:17:59.957Z,18.30
2019-03-09T07:20:29.842Z,18.30
2019-03-09T07:22:59.519Z,18.50
2019-03-09T07:25:29.243Z,18.50
2019-03-09T07:28:03.665Z,18.50
2019-03-09T07:30:33.563Z,18.80
2019-03-09T07:33:03.396Z,18.90
2019-03-09T07:35:35.211Z,19.40
2019-03-09T07:38:05.122Z,19.30
2019-03-09T07:40:36.159Z,19.20
2019-03-09T07:43:06.008Z,19.30
2019-03-09T07:45:35.767Z,19.20
2019-03-09T07:48:05.555Z,19.10
2019-03-09T07:50:35.387Z,19.20
2019-03-09T07:53:05.228Z,19.30
2019-03-09T07:55:35.006Z,19.30
2019-03-09T07:58:06.213Z,19.10
2019-03-09T08:00:36.062Z,19.20
2019-03-09T08:03:05.892Z,19.20
2019-03-09T08:05:35.751Z,19.20
2019-03-09T08:08:05.580Z,19.20
2019-03-09T08:10:35.273Z,19.20
2019-03-09T08:13:05.123Z,19.20
2019-03-09T08:15:35.323Z,19.00
2019-03-09T08:18:05.203Z,18.90
2019-03-09T08:20:34.962Z,18.80
2019-03-09T08:23:04.749Z,18.60
2019-03-09T08:25:34.594Z,18.90
2019-03-09T08:28:04.453Z,19.20
2019-03-09T08:30:34.423Z,19.40
2019-03-09T08:33:04.267Z,19.40
2019-03-09T08:35:34.247Z,19.30
2019-03-09T08:38:05.737Z,19.40
2019-03-09T08:40:36.919Z,19.40
2019-03-09T08:43:06.763Z,19.30
2019-03-09T08:45:36.528Z,19.10
2019-03-09T08:48:06.300Z,19.10
2019-03-09T08:50:36.013Z,19.10
2019-03-09T08:53:05.770Z,19.30
2019-03-09T08:55:35.658Z,19.30
2019-03-09T08:58:05.547Z,19.20
2019-03-09T09:00:35.745Z,19.10
2019-03-09T09:03:05.572Z,19.20
2019-03-09T09:05:35.364Z,19.20
2019-03-09T09:08:05.110Z,19.30
2019-03-09T09:10:34.907Z,19.20
2019-03-09T09:13:04.750Z,19.10
2019-03-09T09:15:34.543Z,19.00
2019-03-09T09:18:04.309Z,19.30
2019-03-09T09:20:34.079Z,19.30
2019-03-09T09:23:03.764Z,19.10
2019-03-09T09:25:33.538Z,19.10
2019-03-09T09:28:03.299Z,19.30
2019-03-09T09:30:33.018Z,19.20
2019-03-09T09:33:02.719Z,19.10
2019-03-09T09:35:32.500Z,18.90
2019-03-09T09:38:02.352Z,18.90
2019-03-09T09:40:32.194Z,19.00
2019-03-09T09:43:02.324Z,19.00
2019-03-09T09:45:32.223Z,19.10
2019-03-09T09:48:02.087Z,19.20
2019-03-09T09:50:31.785Z,19.40
2019-03-09T09:53:01.470Z,19.30
2019-03-09T09:55:31.175Z,19.30
2019-03-09T09:58:00.871Z,19.10
2019-03-09T10:00:30.641Z,19.30
2019-03-09T10:03:00.339Z,19.40
2019-03-09T10:05:30.055Z,19.30
2019-03-09T10:07:59.752Z,19.20
2019-03-09T10:10:29.981Z,19.30
2019-03-09T10:13:00.896Z,19.40
2019-03-09T10:15:30.688Z,19.20
2019-03-09T10:18:00.447Z,19.10
2019-03-09T10:20:30.160Z,19.10
2019-03-09T10:23:04.297Z,19.10
2019-03-09T10:25:31.315Z,19.10
2019-03-09T10:28:01.063Z,19.10
2019-03-09T10:30:30.857Z,19.00
2019-03-09T10:33:00.619Z,19.20
2019-03-09T10:35:30.401Z,19.20
2019-03-09T10:38:00.174Z,19.30
2019-03-09T10:40:29.963Z,19.30
2019-03-09T10:42:59.638Z,19.40
2019-03-09T10:45:29.327Z,19.50
2019-03-09T10:47:59.045Z,19.70
2019-03-09T10:50:28.796Z,19.60
2019-03-09T10:52:58.558Z,19.70
2019-03-09T10:55:28.412Z,19.60
2019-03-09T10:57:58.183Z,19.50
2019-03-09T11:00:29.850Z,19.30
2019-03-09T11:02:59.683Z,19.20
2019-03-09T11:05:29.634Z,19.30
2019-03-09T11:07:59.487Z,19.40
2019-03-09T11:10:29.298Z,19.30
2019-03-09T11:12:59.141Z,19.50
2019-03-09T11:15:28.979Z,19.80
2019-03-09T11:17:58.834Z,19.70
2019-03-09T11:20:29.571Z,19.70
2019-03-09T11:22:59.363Z,19.90
2019-03-09T11:25:29.126Z,19.90
2019-03-09T11:28:07.728Z,19.60
2019-03-09T11:34:12.171Z,19.70
2019-03-09T11:36:41.965Z,19.90
2019-03-09T11:39:11.746Z,19.80
2019-03-09T11:41:41.583Z,19.90
2019-03-09T11:44:11.291Z,19.80
2019-03-09T11:46:40.995Z,19.90
2019-03-09T11:49:10.706Z,19.90
2019-03-09T11:51:40.465Z,20.00
2019-03-09T11:54:10.154Z,19.90
2019-03-09T11:56:39.856Z,19.80
2019-03-09T11:59:09.601Z,19.80
2019-03-09T12:01:39.295Z,20.10
2019-03-09T12:04:08.980Z,19.80
2019-03-09T12:06:38.763Z,19.90
2019-03-09T12:09:08.535Z,19.70
2019-03-09T12:11:39.930Z,19.80
2019-03-09T12:14:09.692Z,19.70
2019-03-09T12:16:39.491Z,19.70
2019-03-09T12:19:09.295Z,19.80
2019-03-09T12:21:39.151Z,19.70
2019-03-09T12:24:16.472Z,19.80
2019-03-09T12:26:40.391Z,19.90
2019-03-09T12:29:10.088Z,20.10
2019-03-09T12:31:39.861Z,20.00
2019-03-09T12:34:09.550Z,19.90
2019-03-09T12:36:39.438Z,20.10
2019-03-09T12:39:10.318Z,20.10
2019-03-09T12:41:40.131Z,20.10
2019-03-09T12:44:09.829Z,20.00
2019-03-09T12:46:39.536Z,20.10
2019-03-09T12:49:09.262Z,20.10
2019-03-09T12:51:39.031Z,19.90
2019-03-09T12:54:08.819Z,19.70
2019-03-09T12:56:38.577Z,19.70
2019-03-09T12:59:08.267Z,19.90
2019-03-09T13:01:38.032Z,20.30
2019-03-09T13:04:11.636Z,20.40
2019-03-09T13:06:41.487Z,19.90
2019-03-09T13:09:11.375Z,19.60
2019-03-09T13:11:41.254Z,19.50
2019-03-09T13:14:10.971Z,19.40
2019-03-09T13:16:40.735Z,19.60
2019-03-09T13:19:10.604Z,19.60
2019-03-09T13:21:40.441Z,19.60
2019-03-09T13:24:10.206Z,19.50
2019-03-09T13:26:39.969Z,19.70
2019-03-09T13:29:09.824Z,19.60
2019-03-09T13:31:39.616Z,19.60
2019-03-09T13:34:09.403Z,19.60
2019-03-09T13:36:39.171Z,19.70
2019-03-09T13:39:08.950Z,19.60
2019-03-09T13:41:38.720Z,19.50
2019-03-09T13:44:08.483Z,19.20
2019-03-09T13:46:39.107Z,19.40
2019-03-09T13:49:08.832Z,19.30
2019-03-09T13:51:38.527Z,19.30
2019-03-09T13:54:08.330Z,19.30
2019-03-09T13:56:38.060Z,19.20
2019-03-09T13:59:07.838Z,19.40
2019-03-09T14:01:37.523Z,19.20
2019-03-09T14:04:07.447Z,19.00
2019-03-09T14:06:37.273Z,19.10
2019-03-09T14:09:07.143Z,19.10
2019-03-09T14:11:37.623Z,19.30
2019-03-09T14:14:07.417Z,19.20
2019-03-09T14:16:37.455Z,19.10
2019-03-09T14:19:07.167Z,18.90
2019-03-09T14:21:36.931Z,19.00
2019-03-09T14:24:06.718Z,19.10
2019-03-09T14:26:36.423Z,19.10
2019-03-09T14:29:06.255Z,19.30
2019-03-09T14:31:37.178Z,19.10
2019-03-09T14:34:06.931Z,19.20
2019-03-09T14:36:36.699Z,19.30
2019-03-09T14:39:07.147Z,19.20
2019-03-09T14:41:37.128Z,19.20
2019-03-09T14:44:06.827Z,19.10
2019-03-09T14:46:36.526Z,19.40
2019-03-09T14:49:06.324Z,19.20
2019-03-09T14:51:36.024Z,19.10
2019-03-09T14:54:05.840Z,19.10
2019-03-09T14:56:35.573Z,19.00
2019-03-09T14:59:05.439Z,18.90
2019-03-09T15:01:35.147Z,18.90
2019-03-09T15:04:05.011Z,18.90
2019-03-09T15:06:34.773Z,18.80
2019-03-09T15:09:05.515Z,18.90
2019-03-09T15:11:36.893Z,19.00
2019-03-09T15:14:06.657Z,18.80
2019-03-09T15:16:36.515Z,18.40
2019-03-09T15:19:06.211Z,18.10
2019-03-09T15:21:36.053Z,18.00
2019-03-09T15:24:05.870Z,17.90
2019-03-09T15:26:35.639Z,17.90
2019-03-09T15:29:05.683Z,18.00
2019-03-09T15:31:35.479Z,17.80
2019-03-09T15:34:05.267Z,17.90
2019-03-09T15:36:34.981Z,17.60
2019-03-09T15:39:05.987Z,17.60
2019-03-09T15:41:37.288Z,17.60
2019-03-09T15:44:07.151Z,17.90
2019-03-09T15:46:38.046Z,17.60
2019-03-09T15:49:07.927Z,17.40
2019-03-09T15:51:37.700Z,17.70
2019-03-09T15:54:07.558Z,17.60
2019-03-09T15:56:38.347Z,17.50
2019-03-09T15:59:08.127Z,17.60
2019-03-09T16:01:38.019Z,18.00
2019-03-09T16:04:07.852Z,18.00
2019-03-09T16:06:37.589Z,17.90
2019-03-09T16:09:07.545Z,18.10
2019-03-09T16:11:45.148Z,18.30
2019-03-09T16:14:09.449Z,18.30
2019-03-09T16:16:39.141Z,18.20
2019-03-09T16:19:08.859Z,18.20
2019-03-09T16:21:38.645Z,18.30
2019-03-09T16:24:08.437Z,18.20
2019-03-09T16:26:38.159Z,18.20
2019-03-09T16:29:07.870Z,18.10
2019-03-09T16:31:37.562Z,18.10
2019-03-09T16:34:07.263Z,18.20
2019-03-09T16:36:36.958Z,18.20
2019-03-09T16:39:07.735Z,18.10
2019-03-09T16:41:37.714Z,18.30
2019-03-09T16:44:07.585Z,18.20
2019-03-09T16:46:37.351Z,18.20
2019-03-09T16:49:07.060Z,18.10
2019-03-09T16:51:36.835Z,18.10
2019-03-09T16:54:06.687Z,18.20
2019-03-09T16:56:36.527Z,18.10
2019-03-09T16:59:06.308Z,18.00
2019-03-09T17:01:35.991Z,18.10
2019-03-09T17:04:05.775Z,18.00
2019-03-09T17:06:35.574Z,18.00
2019-03-09T17:09:06.707Z,17.90
2019-03-09T17:11:37.029Z,17.90
2019-03-09T17:14:06.819Z,17.80
2019-03-09T17:16:36.684Z,17.90
2019-03-09T17:19:06.462Z,18.20
2019-03-09T17:21:36.146Z,18.10
2019-03-09T17:24:05.920Z,18.20
2019-03-09T17:26:35.618Z,18.20
2019-03-09T17:29:05.390Z,18.40
2019-03-09T17:31:35.114Z,18.40
2019-03-09T17:34:04.955Z,18.30
2019-03-09T17:36:34.791Z,18.30
2019-03-09T17:39:05.710Z,18.40
2019-03-09T17:41:37.082Z,18.40
2019-03-09T17:44:06.931Z,18.40
2019-03-09T17:46:36.656Z,18.50
2019-03-09T17:49:07.429Z,18.40
2019-03-09T17:51:37.296Z,18.00
2019-03-09T17:54:07.399Z,18.10
2019-03-09T17:56:37.087Z,18.30
2019-03-09T17:59:06.865Z,18.30
2019-03-09T18:01:36.579Z,18.30
2019-03-09T18:04:06.360Z,18.10
2019-03-09T18:06:36.131Z,18.10
2019-03-09T18:09:06.938Z,17.90
2019-03-09T18:11:37.923Z,18.00
2019-03-09T18:14:07.650Z,18.10
2019-03-09T18:16:37.407Z,18.20
2019-03-09T18:19:07.306Z,18.10
2019-03-09T18:21:37.055Z,18.10
2019-03-09T18:24:07.676Z,18.00
2019-03-09T18:26:37.467Z,17.90
2019-03-09T18:29:07.218Z,18.10
2019-03-09T18:31:36.941Z,18.00
2019-03-09T18:34:06.713Z,18.00
2019-03-09T18:36:36.490Z,18.00
2019-03-09T18:39:07.279Z,17.70
2019-03-09T18:41:37.135Z,17.90
2019-03-09T18:44:06.990Z,18.00
2019-03-09T18:46:36.900Z,18.00
2019-03-09T18:49:06.730Z,18.00
2019-03-09T18:51:36.431Z,18.00
2019-03-09T18:54:06.303Z,17.90
2019-03-09T18:56:36.094Z,17.80
2019-03-09T18:59:05.787Z,17.90
2019-03-09T19:01:35.479Z,17.80
2019-03-09T19:04:05.250Z,17.90
2019-03-09T19:06:35.027Z,17.80
2019-03-09T19:09:08.731Z,17.60
2019-03-09T19:11:38.943Z,17.70
2019-03-09T19:14:08.641Z,17.50
2019-03-09T19:16:38.343Z,17.50
2019-03-09T19:19:09.074Z,17.60
2019-03-09T19:21:38.851Z,17.50
2019-03-09T19:24:08.687Z,17.70
2019-03-09T19:26:38.386Z,17.90
2019-03-09T19:29:08.146Z,17.80
2019-03-09T19:31:37.839Z,17.70
2019-03-09T19:34:07.612Z,17.70
2019-03-09T19:36:37.316Z,17.70
2019-03-09T19:39:07.351Z,17.80
2019-03-09T19:41:37.838Z,17.70
2019-03-09T19:44:07.575Z,17.80
2019-03-09T19:46:37.267Z,17.90
2019-03-09T19:49:06.970Z,17.80
2019-03-09T19:51:36.747Z,17.70
2019-03-09T19:54:06.542Z,17.70
2019-03-09T19:56:36.303Z,17.70
2019-03-09T19:59:06.063Z,17.70
2019-03-09T20:01:35.825Z,17.70
2019-03-09T20:04:05.631Z,17.80
2019-03-09T20:06:35.335Z,17.90
2019-03-09T20:09:06.664Z,17.70
2019-03-09T20:11:37.608Z,17.70
2019-03-09T20:14:08.605Z,17.80
2019-03-09T20:16:39.436Z,17.60
2019-03-09T20:19:09.323Z,17.50
2019-03-09T20:21:39.172Z,17.50
2019-03-09T20:24:09.717Z,17.70
2019-03-09T20:26:39.454Z,17.80
2019-03-09T20:29:09.502Z,17.70
2019-03-09T20:31:39.343Z,17.70
2019-03-09T20:34:09.199Z,17.80
2019-03-09T20:36:38.902Z,17.80
2019-03-09T20:39:08.843Z,17.70
2019-03-09T20:41:39.251Z,17.70
2019-03-09T20:44:08.972Z,17.80
2019-03-09T20:46:41.917Z,17.60
2019-03-09T20:49:10.230Z,17.60
2019-03-09T20:51:40.271Z,17.50
2019-03-09T20:54:10.151Z,17.60
2019-03-09T20:56:39.911Z,17.60
2019-03-09T20:59:09.691Z,17.70
2019-03-09T21:01:39.384Z,17.60
2019-03-09T21:04:10.100Z,17.50
2019-03-09T21:06:39.801Z,17.50
2019-03-09T21:09:09.499Z,17.60
2019-03-09T21:11:40.527Z,17.50
2019-03-09T21:14:10.311Z,17.50
2019-03-09T21:16:40.014Z,17.40
2019-03-09T21:19:09.682Z,17.50
2019-03-09T21:21:39.455Z,17.70
2019-03-09T21:24:09.235Z,17.70
2019-03-09T21:26:38.945Z,17.70
2019-03-09T21:29:08.629Z,17.70
2019-03-09T21:31:38.348Z,17.70
2019-03-09T21:34:08.040Z,17.70
2019-03-09T21:36:37.828Z,17.80
2019-03-09T21:39:08.050Z,17.70
2019-03-09T21:41:38.616Z,17.70
2019-03-09T21:44:08.318Z,17.70
2019-03-09T21:46:38.002Z,17.60
2019-03-09T21:49:07.731Z,17.70
2019-03-09T21:51:37.435Z,17.70
2019-03-09T21:54:07.115Z,17.50
2019-03-09T21:56:36.806Z,17.50
2019-03-09T21:59:06.519Z,17.60
2019-03-09T22:01:36.222Z,17.50
2019-03-09T22:04:06.155Z,17.40
2019-03-09T22:06:35.919Z,17.40
2019-03-09T22:09:06.742Z,17.50
2019-03-09T22:11:37.963Z,17.50
2019-03-09T22:14:07.675Z,17.60
2019-03-09T22:16:38.515Z,17.60
2019-03-09T22:19:08.207Z,17.40
2019-03-09T22:21:37.984Z,17.30
2019-03-09T22:24:07.666Z,17.40
2019-03-09T22:26:38.340Z,17.40
2019-03-09T22:29:08.038Z,17.50
2019-03-09T22:31:37.734Z,17.60
2019-03-09T22:34:07.508Z,17.50
2019-03-09T22:36:37.259Z,17.40
2019-03-09T22:39:07.609Z,17.40
2019-03-09T22:41:37.358Z,17.50
2019-03-09T22:44:07.036Z,17.50
2019-03-09T22:46:36.743Z,17.50
2019-03-09T22:49:06.523Z,17.70
2019-03-09T22:51:36.298Z,17.70
2019-03-09T22:54:06.056Z,17.70
2019-03-09T22:56:35.763Z,17.60
2019-03-09T22:59:05.459Z,17.80
2019-03-09T23:01:35.511Z,17.80
2019-03-09T23:04:06.676Z,17.70
2019-03-09T23:06:37.567Z,17.70
2019-03-09T23:09:07.715Z,17.70
2019-03-09T23:11:38.443Z,17.50
2019-03-09T23:14:08.219Z,17.40
2019-03-09T23:16:37.975Z,17.40
2019-03-09T23:19:07.775Z,17.30
2019-03-09T23:21:37.530Z,17.50
2019-03-09T23:24:07.214Z,17.50
2019-03-09T23:26:36.907Z,17.50
2019-03-09T23:29:06.845Z,17.80
2019-03-09T23:31:36.608Z,18.00
2019-03-09T23:34:06.447Z,17.80
2019-03-09T23:36:36.275Z,17.90
2019-03-09T23:39:08.088Z,17.90
2019-03-09T23:41:38.008Z,17.80
2019-03-09T23:44:07.770Z,17.90
2019-03-09T23:46:37.622Z,18.10
2019-03-09T23:49:07.469Z,18.10
2019-03-09T23:51:37.306Z,18.20
2019-03-09T23:54:07.151Z,18.20
2019-03-09T23:56:36.923Z,18.20
2019-03-09T23:59:06.771Z,18.20
